sensor_id;sensor_type;location;lat;lon;timestamp;pressure;altitude;pressure_sealevel;temperature;humidity
63343;BME280;49465;57.664;39.686;2023-08-30T00:02:01;100319.34;;;19.01;53.91
63343;BME280;49465;57.664;39.686;2023-08-30T00:04:47;100320.44;;;18.90;54.24
63343;BME280;49465;57.664;39.686;2023-08-30T00:07:28;100313.34;;;18.99;54.19
63343;BME280;49465;57.664;39.686;2023-08-30T00:10:12;100328.44;;;19.16;52.95
63343;BME280;49465;57.664;39.686;2023-08-30T00:12:39;100320.94;;;18.76;54.20
63343;BME280;49465;57.664;39.686;2023-08-30T00:15:15;100322.06;;;18.73;53.88
63343;BME280;49465;57.664;39.686;2023-08-30T00:17:52;100327.03;;;18.86;54.25
63343;BME280;49465;57.664;39.686;2023-08-30T00:20:27;100329.84;;;18.85;54.39
63343;BME280;49465;57.664;39.686;2023-08-30T00:23:07;100329.09;;;18.92;54.21
63343;BME280;49465;57.664;39.686;2023-08-30T00:25:50;100331.75;;;18.92;53.98
63343;BME280;49465;57.664;39.686;2023-08-30T00:28:24;100328.41;;;18.90;54.32
63343;BME280;49465;57.664;39.686;2023-08-30T00:31:06;100321.41;;;18.89;54.41
63343;BME280;49465;57.664;39.686;2023-08-30T00:33:44;100327.56;;;18.90;54.13
63343;BME280;49465;57.664;39.686;2023-08-30T00:36:24;100320.63;;;18.79;54.62
63343;BME280;49465;57.664;39.686;2023-08-30T00:38:59;100323.41;;;18.77;54.73
63343;BME280;49465;57.664;39.686;2023-08-30T00:41:35;100333.22;;;18.77;54.61
63343;BME280;49465;57.664;39.686;2023-08-30T00:44:16;100329.88;;;18.75;54.42
63343;BME280;49465;57.664;39.686;2023-08-30T00:46:48;100327.06;;;18.76;54.68
63343;BME280;49465;57.664;39.686;2023-08-30T00:49:20;100329.88;;;18.75;54.70
63343;BME280;49465;57.664;39.686;2023-08-30T00:52:16;100336.34;;;18.72;54.85
63343;BME280;49465;57.664;39.686;2023-08-30T00:54:50;100334.22;;;18.76;54.60
63343;BME280;49465;57.664;39.686;2023-08-30T00:57:21;100331.31;;;18.69;54.99
63343;BME280;49465;57.664;39.686;2023-08-30T00:59:56;100330.19;;;18.72;55.03
63343;BME280;49465;57.664;39.686;2023-08-30T01:02:31;100323.81;;;18.65;54.84
63343;BME280;49465;57.664;39.686;2023-08-30T01:05:08;100323.66;;;18.66;55.17
63343;BME280;49465;57.664;39.686;2023-08-30T01:07:43;100320.47;;;18.63;54.95
63343;BME280;49465;57.664;39.686;2023-08-30T01:10:22;100319.84;;;18.69;55.74
63343;BME280;49465;57.664;39.686;2023-08-30T01:13:04;100318.28;;;18.76;54.62
63343;BME280;49465;57.664;39.686;2023-08-30T01:15:39;100319.31;;;18.65;55.90
63343;BME280;49465;57.664;39.686;2023-08-30T01:18:14;100323.94;;;18.63;55.67
63343;BME280;49465;57.664;39.686;2023-08-30T01:20:45;100320.81;;;18.50;55.48
63343;BME280;49465;57.664;39.686;2023-08-30T01:26:15;100334.34;;;18.74;54.84
63343;BME280;49465;57.664;39.686;2023-08-30T01:28:58;100339.47;;;18.58;55.28
63343;BME280;49465;57.664;39.686;2023-08-30T01:31:34;100339.81;;;19.45;50.74
63343;BME280;49465;57.664;39.686;2023-08-30T01:34:09;100333.94;;;19.59;49.53
63343;BME280;49465;57.664;39.686;2023-08-30T01:36:47;100333.91;;;18.79;54.06
63343;BME280;49465;57.664;39.686;2023-08-30T01:39:19;100343.28;;;18.55;55.83
63343;BME280;49465;57.664;39.686;2023-08-30T01:41:58;100336.59;;;18.51;55.46
63343;BME280;49465;57.664;39.686;2023-08-30T01:44:38;100348.44;;;18.57;55.32
63343;BME280;49465;57.664;39.686;2023-08-30T01:47:17;100343.06;;;18.49;55.78
63343;BME280;49465;57.664;39.686;2023-08-30T01:50:01;100340.69;;;18.46;55.89
63343;BME280;49465;57.664;39.686;2023-08-30T01:52:43;100340.41;;;18.49;56.01
63343;BME280;49465;57.664;39.686;2023-08-30T01:55:28;100344.47;;;18.43;55.96
63343;BME280;49465;57.664;39.686;2023-08-30T01:58:15;100341.84;;;18.61;54.96
63343;BME280;49465;57.664;39.686;2023-08-30T02:00:50;100344.56;;;18.51;55.76
63343;BME280;49465;57.664;39.686;2023-08-30T02:03:24;100346.59;;;18.40;56.07
63343;BME280;49465;57.664;39.686;2023-08-30T02:06:21;100340.34;;;18.76;54.13
63343;BME280;49465;57.664;39.686;2023-08-30T02:09:19;100345.47;;;18.60;56.10
63343;BME280;49465;57.664;39.686;2023-08-30T02:11:56;100349.47;;;18.46;56.10
63343;BME280;49465;57.664;39.686;2023-08-30T02:14:31;100348.97;;;18.43;55.84
63343;BME280;49465;57.664;39.686;2023-08-30T02:17:10;100349.31;;;18.48;56.11
63343;BME280;49465;57.664;39.686;2023-08-30T02:19:47;100346.53;;;18.22;56.34
63343;BME280;49465;57.664;39.686;2023-08-30T02:22:27;100353.31;;;18.34;56.59
63343;BME280;49465;57.664;39.686;2023-08-30T02:25:00;100348.97;;;18.43;56.52
63343;BME280;49465;57.664;39.686;2023-08-30T02:27:47;100352.50;;;18.33;56.78
63343;BME280;49465;57.664;39.686;2023-08-30T02:30:20;100347.31;;;18.32;56.41
63343;BME280;49465;57.664;39.686;2023-08-30T02:33:05;100344.56;;;18.51;56.23
63343;BME280;49465;57.664;39.686;2023-08-30T02:35:47;100348.91;;;18.52;55.91
63343;BME280;49465;57.664;39.686;2023-08-30T02:38:19;100343.19;;;18.20;56.59
63343;BME280;49465;57.664;39.686;2023-08-30T02:40:52;100353.28;;;18.16;56.83
63343;BME280;49465;57.664;39.686;2023-08-30T02:43:29;100351.06;;;18.39;56.72
63343;BME280;49465;57.664;39.686;2023-08-30T02:46:06;100355.56;;;18.38;56.99
63343;BME280;49465;57.664;39.686;2023-08-30T02:48:44;100349.66;;;18.17;56.98
63343;BME280;49465;57.664;39.686;2023-08-30T02:51:16;100347.47;;;18.30;57.37
63343;BME280;49465;57.664;39.686;2023-08-30T02:53:48;100347.47;;;18.30;57.27
63343;BME280;49465;57.664;39.686;2023-08-30T02:56:20;100338.16;;;18.16;57.31
63343;BME280;49465;57.664;39.686;2023-08-30T02:59:00;100342.41;;;18.37;57.17
63343;BME280;49465;57.664;39.686;2023-08-30T03:01:32;100337.03;;;18.29;57.25
63343;BME280;49465;57.664;39.686;2023-08-30T03:04:14;100338.44;;;18.51;56.62
63343;BME280;49465;57.664;39.686;2023-08-30T03:06:49;100336.72;;;18.32;57.19
63343;BME280;49465;57.664;39.686;2023-08-30T03:09:22;100344.16;;;18.18;56.94
63343;BME280;49465;57.664;39.686;2023-08-30T03:11:59;100347.41;;;18.40;57.05
63343;BME280;49465;57.664;39.686;2023-08-30T03:14:41;100353.22;;;18.53;56.24
63343;BME280;49465;57.664;39.686;2023-08-30T03:17:20;100347.13;;;18.43;57.66
63343;BME280;49465;57.664;39.686;2023-08-30T03:19:52;100348.16;;;18.32;57.95
63343;BME280;49465;57.664;39.686;2023-08-30T03:22:27;100342.06;;;18.22;57.39
63343;BME280;49465;57.664;39.686;2023-08-30T03:25:02;100353.03;;;18.37;58.08
63343;BME280;49465;57.664;39.686;2023-08-30T03:27:40;100360.09;;;18.46;57.96
63343;BME280;49465;57.664;39.686;2023-08-30T03:30:12;100355.88;;;18.26;57.80
63343;BME280;49465;57.664;39.686;2023-08-30T03:32:48;100354.69;;;18.38;57.94
63343;BME280;49465;57.664;39.686;2023-08-30T03:35:21;100348.56;;;18.37;58.23
63343;BME280;49465;57.664;39.686;2023-08-30T03:37:53;100354.41;;;18.41;58.20
63343;BME280;49465;57.664;39.686;2023-08-30T03:40:24;100357.06;;;18.41;58.03
63343;BME280;49465;57.664;39.686;2023-08-30T03:43:09;100367.16;;;18.55;57.95
63343;BME280;49465;57.664;39.686;2023-08-30T03:45:43;100365.56;;;18.45;58.13
63343;BME280;49465;57.664;39.686;2023-08-30T03:48:15;100370.56;;;18.48;58.29
63343;BME280;49465;57.664;39.686;2023-08-30T03:50:47;100365.94;;;18.50;57.77
63343;BME280;49465;57.664;39.686;2023-08-30T03:53:16;100354.56;;;18.40;57.80
63343;BME280;49465;57.664;39.686;2023-08-30T03:55:43;100364.03;;;18.42;57.83
63343;BME280;49465;57.664;39.686;2023-08-30T03:58:17;100369.69;;;18.57;57.96
63343;BME280;49465;57.664;39.686;2023-08-30T04:00:52;100372.75;;;18.62;57.92
63343;BME280;49465;57.664;39.686;2023-08-30T04:03:30;100369.91;;;18.64;58.12
63343;BME280;49465;57.664;39.686;2023-08-30T04:06:05;100365.16;;;18.67;57.58
63343;BME280;49465;57.664;39.686;2023-08-30T04:08:40;100369.81;;;18.83;56.72
63343;BME280;49465;57.664;39.686;2023-08-30T04:11:15;100365.09;;;18.77;57.57
63343;BME280;49465;57.664;39.686;2023-08-30T04:13:51;100370.06;;;18.90;56.70
63343;BME280;49465;57.664;39.686;2023-08-30T04:16:24;100377.66;;;18.85;57.60
63343;BME280;49465;57.664;39.686;2023-08-30T04:18:55;100375.84;;;18.75;56.94
63343;BME280;49465;57.664;39.686;2023-08-30T04:21:30;100372.09;;;18.78;57.12
63343;BME280;49465;57.664;39.686;2023-08-30T04:24:09;100375.00;;;19.03;56.85
63343;BME280;49465;57.664;39.686;2023-08-30T04:26:43;100374.72;;;19.06;56.99
63343;BME280;49465;57.664;39.686;2023-08-30T04:29:26;100373.88;;;19.05;56.84
63343;BME280;49465;57.664;39.686;2023-08-30T04:31:57;100375.69;;;19.05;56.61
63343;BME280;49465;57.664;39.686;2023-08-30T04:34:35;100375.47;;;19.16;55.99
63343;BME280;49465;57.664;39.686;2023-08-30T04:37:04;100371.81;;;18.99;56.57
63343;BME280;49465;57.664;39.686;2023-08-30T04:39:33;100370.69;;;19.02;56.78
63343;BME280;49465;57.664;39.686;2023-08-30T04:42:14;100382.47;;;19.17;56.91
63343;BME280;49465;57.664;39.686;2023-08-30T04:44:40;100380.38;;;19.11;56.58
63343;BME280;49465;57.664;39.686;2023-08-30T04:47:17;100389.28;;;19.38;56.20
63343;BME280;49465;57.664;39.686;2023-08-30T04:49:55;100380.72;;;19.52;55.93
63343;BME280;49465;57.664;39.686;2023-08-30T04:52:24;100380.69;;;19.44;56.28
63343;BME280;49465;57.664;39.686;2023-08-30T04:54:56;100381.44;;;19.36;56.43
63343;BME280;49465;57.664;39.686;2023-08-30T04:57:31;100382.94;;;19.56;56.10
63343;BME280;49465;57.664;39.686;2023-08-30T05:00:03;100394.03;;;19.70;55.53
63343;BME280;49465;57.664;39.686;2023-08-30T05:02:40;100390.59;;;19.78;55.68
63343;BME280;49465;57.664;39.686;2023-08-30T05:05:13;100392.97;;;19.63;55.64
63343;BME280;49465;57.664;39.686;2023-08-30T05:07:42;100389.81;;;19.67;56.05
63343;BME280;49465;57.664;39.686;2023-08-30T05:10:15;100391.22;;;19.71;55.64
63343;BME280;49465;57.664;39.686;2023-08-30T05:12:52;100400.03;;;19.98;54.85
63343;BME280;49465;57.664;39.686;2023-08-30T05:15:27;100398.72;;;20.02;54.86
63343;BME280;49465;57.664;39.686;2023-08-30T05:18:04;100402.69;;;19.98;55.03
63343;BME280;49465;57.664;39.686;2023-08-30T05:20:34;100404.06;;;20.02;55.21
63343;BME280;49465;57.664;39.686;2023-08-30T05:23:06;100400.81;;;19.90;55.10
63343;BME280;49465;57.664;39.686;2023-08-30T05:25:41;100407.25;;;20.06;55.15
63343;BME280;49465;57.664;39.686;2023-08-30T05:28:12;100407.75;;;20.09;55.26
63343;BME280;49465;57.664;39.686;2023-08-30T05:30:43;100405.03;;;20.01;55.55
63343;BME280;49465;57.664;39.686;2023-08-30T05:33:20;100398.13;;;20.17;55.33
63343;BME280;49465;57.664;39.686;2023-08-30T05:35:53;100397.13;;;20.09;55.25
63343;BME280;49465;57.664;39.686;2023-08-30T05:38:30;100397.56;;;20.31;55.31
63343;BME280;49465;57.664;39.686;2023-08-30T05:41:08;100400.22;;;20.31;55.21
63343;BME280;49465;57.664;39.686;2023-08-30T05:43:49;100399.66;;;20.19;55.28
63343;BME280;49465;57.664;39.686;2023-08-30T05:46:21;100400.91;;;20.07;55.60
63343;BME280;49465;57.664;39.686;2023-08-30T05:48:53;100401.97;;;20.14;55.63
63343;BME280;49465;57.664;39.686;2023-08-30T05:51:28;100404.69;;;20.30;55.59
63343;BME280;49465;57.664;39.686;2023-08-30T05:54:02;100406.34;;;20.23;55.41
63343;BME280;49465;57.664;39.686;2023-08-30T05:56:34;100407.84;;;20.26;55.66
63343;BME280;49465;57.664;39.686;2023-08-30T05:59:12;100408.50;;;20.28;55.41
63343;BME280;49465;57.664;39.686;2023-08-30T06:01:48;100411.72;;;20.40;55.52
63343;BME280;49465;57.664;39.686;2023-08-30T06:04:20;100422.00;;;20.34;55.11
63343;BME280;49465;57.664;39.686;2023-08-30T06:06:52;100416.91;;;20.41;55.12
63343;BME280;49465;57.664;39.686;2023-08-30T06:09:28;100427.75;;;20.56;55.62
63343;BME280;49465;57.664;39.686;2023-08-30T06:11:57;100428.09;;;20.53;54.47
63343;BME280;49465;57.664;39.686;2023-08-30T06:14:32;100437.75;;;20.54;54.81
63343;BME280;49465;57.664;39.686;2023-08-30T06:17:01;100434.50;;;20.60;54.40
63343;BME280;49465;57.664;39.686;2023-08-30T06:19:33;100436.81;;;20.63;54.38
63343;BME280;49465;57.664;39.686;2023-08-30T06:22:03;100434.63;;;20.59;54.18
63343;BME280;49465;57.664;39.686;2023-08-30T06:24:45;100435.72;;;20.74;54.29
63343;BME280;49465;57.664;39.686;2023-08-30T06:27:12;100438.84;;;20.69;54.42
63343;BME280;49465;57.664;39.686;2023-08-30T06:29:41;100441.59;;;20.86;54.13
63343;BME280;49465;57.664;39.686;2023-08-30T06:32:10;100441.53;;;20.78;54.20
63343;BME280;49465;57.664;39.686;2023-08-30T06:34:46;100461.06;;;20.94;53.69
63343;BME280;49465;57.664;39.686;2023-08-30T06:37:22;100457.91;;;20.99;53.83
63343;BME280;49465;57.664;39.686;2023-08-30T06:39:53;100459.22;;;20.87;53.83
63343;BME280;49465;57.664;39.686;2023-08-30T06:42:34;100461.13;;;21.11;53.73
63343;BME280;49465;57.664;39.686;2023-08-30T06:45:10;100458.44;;;21.11;53.83
63343;BME280;49465;57.664;39.686;2023-08-30T06:47:47;100466.97;;;21.14;53.65
63343;BME280;49465;57.664;39.686;2023-08-30T06:50:23;100475.31;;;21.28;53.77
63343;BME280;49465;57.664;39.686;2023-08-30T06:52:49;100463.47;;;21.14;53.46
63343;BME280;49465;57.664;39.686;2023-08-30T06:55:22;100466.34;;;21.29;53.39
63343;BME280;49465;57.664;39.686;2023-08-30T06:57:59;100469.31;;;21.34;54.02
63343;BME280;49465;57.664;39.686;2023-08-30T07:00:31;100467.69;;;21.41;53.54
63343;BME280;49465;57.664;39.686;2023-08-30T07:03:03;100469.88;;;21.46;53.22
63343;BME280;49465;57.664;39.686;2023-08-30T07:05:33;100463.16;;;21.42;53.41
63343;BME280;49465;57.664;39.686;2023-08-30T07:08:07;100443.72;;;21.74;52.89
63343;BME280;49465;57.664;39.686;2023-08-30T07:10:37;100432.53;;;21.79;53.14
63343;BME280;49465;57.664;39.686;2023-08-30T07:13:11;100424.16;;;21.98;53.24
63343;BME280;49465;57.664;39.686;2023-08-30T07:15:49;100426.47;;;22.09;52.33
63343;BME280;49465;57.664;39.686;2023-08-30T07:18:30;100435.00;;;22.13;52.16
63343;BME280;49465;57.664;39.686;2023-08-30T07:20:59;100422.28;;;22.07;51.77
63343;BME280;49465;57.664;39.686;2023-08-30T07:23:35;100429.78;;;22.20;52.02
63343;BME280;49465;57.664;39.686;2023-08-30T07:26:21;100434.13;;;22.29;51.93
63343;BME280;49465;57.664;39.686;2023-08-30T07:28:50;100440.13;;;22.15;51.02
63343;BME280;49465;57.664;39.686;2023-08-30T07:31:21;100438.13;;;22.17;52.11
63343;BME280;49465;57.664;39.686;2023-08-30T07:33:56;100444.16;;;22.27;51.71
63343;BME280;49465;57.664;39.686;2023-08-30T07:36:37;100448.94;;;22.40;51.12
63343;BME280;49465;57.664;39.686;2023-08-30T07:39:06;100447.75;;;22.42;51.26
63343;BME280;49465;57.664;39.686;2023-08-30T07:41:38;100456.47;;;22.44;51.34
63343;BME280;49465;57.664;39.686;2023-08-30T07:44:08;100444.72;;;22.54;51.35
63343;BME280;49465;57.664;39.686;2023-08-30T07:46:43;100435.50;;;22.64;50.41
63343;BME280;49465;57.664;39.686;2023-08-30T07:49:15;100441.28;;;22.76;50.41
63343;BME280;49465;57.664;39.686;2023-08-30T07:51:44;100440.72;;;22.89;50.40
63343;BME280;49465;57.664;39.686;2023-08-30T07:54:19;100442.16;;;23.08;50.52
63343;BME280;49465;57.664;39.686;2023-08-30T07:56:59;100436.47;;;23.11;48.55
63343;BME280;49465;57.664;39.686;2023-08-30T07:59:39;100433.84;;;23.26;48.43
63343;BME280;49465;57.664;39.686;2023-08-30T08:02:08;100431.06;;;23.19;49.29
63343;BME280;49465;57.664;39.686;2023-08-30T08:04:40;100445.31;;;23.35;47.62
63343;BME280;49465;57.664;39.686;2023-08-30T08:07:27;100445.34;;;23.26;47.40
63343;BME280;49465;57.664;39.686;2023-08-30T08:09:56;100451.84;;;23.32;48.33
63343;BME280;49465;57.664;39.686;2023-08-30T08:12:50;100451.31;;;23.37;49.04
63343;BME280;49465;57.664;39.686;2023-08-30T08:15:20;100453.16;;;23.59;48.42
63343;BME280;49465;57.664;39.686;2023-08-30T08:17:52;100443.00;;;23.55;48.61
63343;BME280;49465;57.664;39.686;2023-08-30T08:20:24;100448.09;;;23.64;48.24
63343;BME280;49465;57.664;39.686;2023-08-30T08:22:56;100457.47;;;23.83;47.76
63343;BME280;49465;57.664;39.686;2023-08-30T08:25:28;100466.53;;;23.82;48.17
63343;BME280;49465;57.664;39.686;2023-08-30T08:28:06;100477.94;;;23.99;46.57
63343;BME280;49465;57.664;39.686;2023-08-30T08:30:42;100470.09;;;24.13;47.51
63343;BME280;49465;57.664;39.686;2023-08-30T08:33:11;100467.13;;;24.07;47.21
63343;BME280;49465;57.664;39.686;2023-08-30T08:35:54;100464.75;;;24.42;47.38
63343;BME280;49465;57.664;39.686;2023-08-30T08:38:24;100470.47;;;24.24;47.37
63343;BME280;49465;57.664;39.686;2023-08-30T08:41:04;100471.59;;;24.60;47.13
63343;BME280;49465;57.664;39.686;2023-08-30T08:43:39;100465.34;;;24.53;46.66
63343;BME280;49465;57.664;39.686;2023-08-30T08:46:19;100465.22;;;24.61;46.44
63343;BME280;49465;57.664;39.686;2023-08-30T08:49:16;100462.25;;;24.85;45.55
63343;BME280;49465;57.664;39.686;2023-08-30T08:51:43;100467.06;;;24.75;46.41
63343;BME280;49465;57.664;39.686;2023-08-30T08:54:23;100477.13;;;24.88;45.99
63343;BME280;49465;57.664;39.686;2023-08-30T08:56:58;100484.94;;;25.04;46.36
63343;BME280;49465;57.664;39.686;2023-08-30T08:59:38;100481.25;;;25.05;45.70
63343;BME280;49465;57.664;39.686;2023-08-30T09:02:23;100484.44;;;25.16;45.55
63343;BME280;49465;57.664;39.686;2023-08-30T09:05:00;100478.91;;;25.17;45.99
63343;BME280;49465;57.664;39.686;2023-08-30T09:07:42;100489.72;;;25.24;45.62
63343;BME280;49465;57.664;39.686;2023-08-30T09:10:20;100496.25;;;25.36;44.72
63343;BME280;49465;57.664;39.686;2023-08-30T09:12:57;100500.97;;;25.34;45.38
63343;BME280;49465;57.664;39.686;2023-08-30T09:15:33;100506.47;;;25.48;45.44
63343;BME280;49465;57.664;39.686;2023-08-30T09:18:03;100513.97;;;25.31;44.85
63343;BME280;49465;57.664;39.686;2023-08-30T09:20:32;100511.91;;;25.33;44.40
63343;BME280;49465;57.664;39.686;2023-08-30T09:23:22;100520.53;;;25.71;44.58
63343;BME280;49465;57.664;39.686;2023-08-30T09:26:03;100531.41;;;25.63;44.54
63343;BME280;49465;57.664;39.686;2023-08-30T09:28:41;100535.31;;;25.39;44.47
63343;BME280;49465;57.664;39.686;2023-08-30T09:31:17;100542.09;;;25.56;44.10
63343;BME280;49465;57.664;39.686;2023-08-30T09:33:57;100541.84;;;25.51;44.61
63343;BME280;49465;57.664;39.686;2023-08-30T09:36:42;100533.97;;;25.71;44.19
63343;BME280;49465;57.664;39.686;2023-08-30T09:39:14;100543.56;;;26.30;43.74
63343;BME280;49465;57.664;39.686;2023-08-30T09:41:59;100537.06;;;25.68;43.91
63343;BME280;49465;57.664;39.686;2023-08-30T09:44:30;100546.19;;;25.52;44.29
63343;BME280;49465;57.664;39.686;2023-08-30T09:47:09;100541.53;;;25.24;44.52
63343;BME280;49465;57.664;39.686;2023-08-30T09:49:56;100544.56;;;25.21;44.40
63343;BME280;49465;57.664;39.686;2023-08-30T09:52:28;100549.78;;;24.93;44.40
63343;BME280;49465;57.664;39.686;2023-08-30T09:55:11;100552.94;;;24.97;44.37
63343;BME280;49465;57.664;39.686;2023-08-30T09:57:48;100551.91;;;24.98;44.41
63343;BME280;49465;57.664;39.686;2023-08-30T10:00:24;100557.38;;;24.90;44.76
63343;BME280;49465;57.664;39.686;2023-08-30T10:02:50;100549.63;;;24.65;44.65
63343;BME280;49465;57.664;39.686;2023-08-30T10:05:20;100543.25;;;24.66;44.75
63343;BME280;49465;57.664;39.686;2023-08-30T10:07:52;100557.84;;;24.78;44.80
63343;BME280;49465;57.664;39.686;2023-08-30T10:10:34;100559.31;;;24.81;44.97
63343;BME280;49465;57.664;39.686;2023-08-30T10:13:07;100564.22;;;24.62;44.79
63343;BME280;49465;57.664;39.686;2023-08-30T10:15:45;100557.84;;;24.78;44.61
63343;BME280;49465;57.664;39.686;2023-08-30T10:18:19;100548.97;;;24.63;44.63
63343;BME280;49465;57.664;39.686;2023-08-30T10:21:19;100550.34;;;24.89;44.36
63343;BME280;49465;57.664;39.686;2023-08-30T10:23:55;100550.19;;;24.60;44.32
63343;BME280;49465;57.664;39.686;2023-08-30T10:26:30;100546.94;;;24.65;44.73
63343;BME280;49465;57.664;39.686;2023-08-30T10:29:04;100546.19;;;24.71;44.63
63343;BME280;49465;57.664;39.686;2023-08-30T10:31:38;100546.59;;;24.68;45.23
63343;BME280;49465;57.664;39.686;2023-08-30T10:34:19;100536.19;;;24.95;44.98
63343;BME280;49465;57.664;39.686;2023-08-30T10:37:02;100539.50;;;24.97;45.25
63343;BME280;49465;57.664;39.686;2023-08-30T10:39:47;100540.81;;;25.01;44.65
63343;BME280;49465;57.664;39.686;2023-08-30T10:42:26;100532.75;;;25.01;44.27
63343;BME280;49465;57.664;39.686;2023-08-30T10:47:38;100535.38;;;24.94;44.17
63343;BME280;49465;57.664;39.686;2023-08-30T10:50:17;100551.91;;;24.98;43.94
63343;BME280;49465;57.664;39.686;2023-08-30T10:52:59;100557.00;;;25.08;44.15
63343;BME280;49465;57.664;39.686;2023-08-30T10:55:39;100564.69;;;24.96;43.82
63343;BME280;49465;57.664;39.686;2023-08-30T10:58:16;100571.16;;;25.01;43.80
63343;BME280;49465;57.664;39.686;2023-08-30T11:00:53;100562.75;;;24.75;44.15
63343;BME280;49465;57.664;39.686;2023-08-30T11:03:26;100558.38;;;24.89;44.39
63343;BME280;49465;57.664;39.686;2023-08-30T11:05:58;100555.72;;;24.74;44.06
63343;BME280;49465;57.664;39.686;2023-08-30T11:08:32;100559.50;;;24.79;44.15
63343;BME280;49465;57.664;39.686;2023-08-30T11:11:11;100558.94;;;24.99;43.65
63343;BME280;49465;57.664;39.686;2023-08-30T11:13:43;100562.75;;;24.75;43.96
63343;BME280;49465;57.664;39.686;2023-08-30T11:16:24;100560.22;;;25.03;43.81
63343;BME280;49465;57.664;39.686;2023-08-30T11:18:58;100552.47;;;24.93;43.93
63343;BME280;49465;57.664;39.686;2023-08-30T11:21:27;100556.47;;;24.82;43.95
63343;BME280;49465;57.664;39.686;2023-08-30T11:24:01;100560.53;;;24.78;43.56
63343;BME280;49465;57.664;39.686;2023-08-30T11:26:35;100564.16;;;24.85;43.61
63343;BME280;49465;57.664;39.686;2023-08-30T11:29:13;100551.81;;;24.91;43.52
63343;BME280;49465;57.664;39.686;2023-08-30T11:31:42;100540.28;;;24.76;44.56
63343;BME280;49465;57.664;39.686;2023-08-30T11:34:16;100543.59;;;24.93;44.23
63343;BME280;49465;57.664;39.686;2023-08-30T11:36:57;100546.63;;;25.04;44.02
63343;BME280;49465;57.664;39.686;2023-08-30T11:39:35;100539.97;;;25.00;43.60
63343;BME280;49465;57.664;39.686;2023-08-30T11:42:07;100531.63;;;25.10;44.23
63343;BME280;49465;57.664;39.686;2023-08-30T11:44:40;100536.88;;;25.18;44.28
63343;BME280;49465;57.664;39.686;2023-08-30T11:47:21;100540.09;;;25.43;43.75
63343;BME280;49465;57.664;39.686;2023-08-30T11:49:57;100541.31;;;25.41;43.45
63343;BME280;49465;57.664;39.686;2023-08-30T11:52:31;100528.19;;;25.31;43.51
63343;BME280;49465;57.664;39.686;2023-08-30T11:55:04;100529.50;;;25.57;43.45
63343;BME280;49465;57.664;39.686;2023-08-30T11:57:36;100526.69;;;25.65;43.11
63343;BME280;49465;57.664;39.686;2023-08-30T12:00:17;100522.03;;;25.74;43.71
63343;BME280;49465;57.664;39.686;2023-08-30T12:02:52;100519.41;;;25.80;43.63
63343;BME280;49465;57.664;39.686;2023-08-30T12:05:21;100518.91;;;25.70;44.02
63343;BME280;49465;57.664;39.686;2023-08-30T12:07:56;100531.03;;;25.88;43.84
63343;BME280;49465;57.664;39.686;2023-08-30T12:10:28;100530.28;;;25.94;43.45
63343;BME280;49465;57.664;39.686;2023-08-30T12:13:03;100528.81;;;25.91;42.90
63343;BME280;49465;57.664;39.686;2023-08-30T12:15:38;100530.81;;;25.89;42.94
63343;BME280;49465;57.664;39.686;2023-08-30T12:18:11;100527.78;;;25.92;43.00
63343;BME280;49465;57.664;39.686;2023-08-30T12:21:00;100523.16;;;26.08;43.20
63343;BME280;49465;57.664;39.686;2023-08-30T12:23:40;100524.59;;;26.03;42.69
63343;BME280;49465;57.664;39.686;2023-08-30T12:26:13;100534.44;;;25.96;42.56
63343;BME280;49465;57.664;39.686;2023-08-30T12:28:46;100523.31;;;25.99;42.19
63343;BME280;49465;57.664;39.686;2023-08-30T12:31:23;100521.72;;;26.05;42.71
63343;BME280;49465;57.664;39.686;2023-08-30T12:33:56;100529.88;;;25.97;42.81
63343;BME280;49465;57.664;39.686;2023-08-30T12:36:39;100514.03;;;26.02;42.88
63343;BME280;49465;57.664;39.686;2023-08-30T12:39:20;100513.59;;;25.98;42.78
63343;BME280;49465;57.664;39.686;2023-08-30T12:41:52;100520.75;;;25.91;42.65
63343;BME280;49465;57.664;39.686;2023-08-30T12:44:24;100512.31;;;25.73;42.83
63343;BME280;49465;57.664;39.686;2023-08-30T12:46:53;100513.19;;;25.80;43.21
63343;BME280;49465;57.664;39.686;2023-08-30T12:49:30;100507.44;;;25.83;42.79
63343;BME280;49465;57.664;39.686;2023-08-30T12:51:59;100506.47;;;25.69;42.64
63343;BME280;49465;57.664;39.686;2023-08-30T12:54:27;100503.66;;;25.56;42.59
63343;BME280;49465;57.664;39.686;2023-08-30T12:57:02;100496.78;;;25.68;42.64
63343;BME280;49465;57.664;39.686;2023-08-30T12:59:34;100488.59;;;25.76;43.70
63343;BME280;49465;57.664;39.686;2023-08-30T13:02:09;100483.25;;;25.83;43.85
63343;BME280;49465;57.664;39.686;2023-08-30T13:04:42;100495.19;;;25.95;43.65
63343;BME280;49465;57.664;39.686;2023-08-30T13:07:08;100475.78;;;26.00;43.64
63343;BME280;49465;57.664;39.686;2023-08-30T13:09:43;100472.44;;;26.26;43.44
63343;BME280;49465;57.664;39.686;2023-08-30T13:12:15;100476.38;;;26.30;43.41
63343;BME280;49465;57.664;39.686;2023-08-30T13:14:48;100476.84;;;26.34;42.12
63343;BME280;49465;57.664;39.686;2023-08-30T13:17:22;100481.75;;;26.58;42.39
63343;BME280;49465;57.664;39.686;2023-08-30T13:19:51;100477.38;;;26.57;42.14
63343;BME280;49465;57.664;39.686;2023-08-30T13:22:18;100473.69;;;26.58;42.23
63343;BME280;49465;57.664;39.686;2023-08-30T13:24:46;100472.97;;;26.78;42.08
63343;BME280;49465;57.664;39.686;2023-08-30T13:27:27;100478.34;;;26.78;42.57
63343;BME280;49465;57.664;39.686;2023-08-30T13:29:59;100476.97;;;27.02;41.50